Liberal Mid-America Regional Airport
KLBL : now visible

Airfield :











YOU CAN JOIN US ON...

 
LOGIN :

Register | Disclaimer

   EN    FR    IT 

 









Legend :    VFR   Marginal VFR   IFR   Intensive IFR   Very Intensive IFR
Visi :
Ceiling :
>= 8 km
>= 3000ft
5 to 8 km
1000 to 3000 ft
1500m to 5 km
500 to 1000 ft
800 to 1500m
200 to 500 ft
< 800m
< 200 ft
Symbols :   Thunderstorms  Fog  Heavy snow  Heavy precipitations  Wind > 20 kt






- Airport Elevation : 2885 ft
- IATA code : LBL


KLBL - Liberal Mid-America Regional

CURRENT METAR :
  • 100356Z AUTO 10018G28KT 10SM CLR 27/22 A2994 RMK AO2 PK WND 10028/0348 SLP099 T02720217

EXPIRED METARs :
  • 100256Z AUTO 10019G29KT 10SM CLR 29/22 A2993 RMK AO2 PK WND 10029/0248 SLP094 T02890217 53012
  • 100156Z AUTO 09019G25KT 10SM CLR 31/21 A2992 RMK AO2 PK WND 10030/0135 SLP090 T03060211

TAF KLBL
Valid from the 10 at 00:00 until the 11 at 00:00 UTC


092320Z 1000/1024 07015G25KT P6SM SCT060
FM100300 06015KT P6SM SCT200
FM100900 06012KT P6SM OVC070
FM101200 06008KT 5SM BR OVC025
FM101500 06008KT P6SM SCT060 SCT150
KZKC FIR / North America



MET'MAP, your aeronautical weather chart ! - Copyright ORBIFLY December 2007 - Disclaimer

ORBIFLY MET'MAP TEAM :

Programming & Development : Alexandra Zaïnal
Concept & original design : Baudouin d'Aumeries
Assistance for programming : Marc-Olivier Méhu
Technical & hardware support : Manuel Goepfert

Contact : metmap@orbifly.com




SOURCES & CREDITS :

   NOAA       Earth
Advisory